Time;durP1;ratioP1;P1;durP2;ratioP2;P2;SDS_P1;SDS_P2;PMS_P1;PMS_P2;Temp;Humidity;BMP_temperature;BMP_pressure;BME280_temperature;BME280_humidity;BME280_pressure;Samples;Min_cycle;Max_cycle;Signal;HPM_P1;HPM_P2
2020/12/16 00:02:04;;;;;;;37.10;30.92;;;;;;;;;;5086350;28;20040;-63
2020/12/16 00:04:30;;;;;;;40.83;31.35;;;;;;;;;;5080477;28;20047;-62
2020/12/16 00:06:56;;;;;;;42.47;32.45;;;;;;;;;;5084150;28;20422;-63
2020/12/16 00:09:22;;;;;;;40.63;31.90;;;;;;;;;;5081504;28;20374;-63
2020/12/16 00:11:48;;;;;;;36.65;32.70;;;;;;;;;;5081670;28;20024;-63
2020/12/16 00:14:14;;;;;;;37.15;30.95;;;;;;;;;;5084059;28;20016;-63
2020/12/16 00:16:40;;;;;;;40.83;31.20;;;;;;;;;;5079761;28;20024;-62
2020/12/16 00:19:06;;;;;;;39.15;31.20;;;;;;;;;;5083058;28;20397;-62
2020/12/16 00:21:32;;;;;;;40.08;31.17;;;;;;;;;;5077848;28;20023;-62
2020/12/16 00:23:58;;;;;;;41.05;31.73;;;;;;;;;;5082025;28;20077;-63
2020/12/16 00:26:24;;;;;;;35.70;29.95;;;;;;;;;;5083524;28;20036;-62
2020/12/16 00:28:50;;;;;;;38.25;31.42;;;;;;;;;;5081398;28;20534;-63
2020/12/16 00:31:17;;;;;;;40.08;31.52;;;;;;;;;;5080117;28;20123;-63
2020/12/16 00:33:43;;;;;;;38.03;31.50;;;;;;;;;;5083389;28;20035;-63
2020/12/16 00:36:09;;;;;;;40.90;31.70;;;;;;;;;;5075762;28;20097;-62
2020/12/16 00:38:35;;;;;;;39.92;31.45;;;;;;;;;;5083849;28;20086;-62
2020/12/16 00:41:01;;;;;;;39.63;32.55;;;;;;;;;;5080370;28;20185;-63
2020/12/16 00:43:27;;;;;;;39.85;33.10;;;;;;;;;;5084013;28;20036;-63
2020/12/16 00:45:53;;;;;;;40.63;32.75;;;;;;;;;;5078171;28;20028;-63
2020/12/16 00:48:19;;;;;;;40.30;32.72;;;;;;;;;;5073234;28;20024;-63
2020/12/16 00:50:45;;;;;;;43.75;34.35;;;;;;;;;;5074625;28;20085;-62
2020/12/16 00:56:15;;;;;;;43.30;34.10;;;;;;;;;;5081545;28;20090;-63
2020/12/16 00:58:41;;;;;;;42.35;33.45;;;;;;;;;;5081087;28;20119;-62
2020/12/16 01:04:10;;;;;;;43.72;34.67;;;;;;;;;;5076836;28;20129;-63
2020/12/16 01:06:37;;;;;;;43.20;34.22;;;;;;;;;;5083362;28;20031;-62
2020/12/16 01:09:05;;;;;;;41.55;35.83;;;;;;;;;;5086204;28;20032;-62
2020/12/16 01:11:33;;;;;;;45.55;35.30;;;;;;;;;;5089991;28;20032;-62
2020/12/16 01:13:59;;;;;;;46.15;35.03;;;;;;;;;;5085372;28;20021;-63
2020/12/16 01:16:25;;;;;;;44.97;34.47;;;;;;;;;;5087618;28;20077;-63
2020/12/16 01:18:51;;;;;;;44.15;34.90;;;;;;;;;;5082742;28;20382;-63
2020/12/16 01:24:26;;;;;;;39.88;34.53;;;;;;;;;;5080341;28;20051;-62
2020/12/16 01:26:52;;;;;;;43.20;34.63;;;;;;;;;;5080709;28;20025;-62
2020/12/16 01:29:19;;;;;;;43.28;36.03;;;;;;;;;;5075554;28;20109;-62
2020/12/16 01:31:46;;;;;;;55.45;38.80;;;;;;;;;;5086123;28;20051;-62
2020/12/16 01:34:12;;;;;;;52.75;39.08;;;;;;;;;;5087317;28;20028;-63
2020/12/16 01:36:42;;;;;;;52.72;39.08;;;;;;;;;;5072795;28;20035;-63
2020/12/16 01:39:14;;;;;;;50.30;39.47;;;;;;;;;;5087493;28;20044;-63
2020/12/16 01:41:44;;;;;;;54.22;41.53;;;;;;;;;;5084324;28;20051;-63
2020/12/16 01:44:11;;;;;;;52.47;42.22;;;;;;;;;;5078269;28;20098;-64
2020/12/16 01:46:37;;;;;;;53.90;40.45;;;;;;;;;;5084534;28;20122;-63
2020/12/16 01:49:03;;;;;;;56.92;42.65;;;;;;;;;;5080292;28;20027;-63
2020/12/16 01:51:30;;;;;;;55.05;40.33;;;;;;;;;;5083249;28;20027;-64
2020/12/16 01:53:57;;;;;;;48.20;38.67;;;;;;;;;;5079344;28;20035;-63
2020/12/16 01:56:24;;;;;;;51.15;40.80;;;;;;;;;;5083498;28;20135;-63
2020/12/16 01:58:51;;;;;;;51.63;41.22;;;;;;;;;;5082296;28;20042;-63
2020/12/16 02:01:19;;;;;;;50.72;40.63;;;;;;;;;;5078396;28;20482;-63
2020/12/16 02:03:46;;;;;;;50.92;40.85;;;;;;;;;;5085567;28;20075;-63
2020/12/16 02:06:12;;;;;;;55.70;41.60;;;;;;;;;;5075921;28;20035;-63
2020/12/16 02:08:39;;;;;;;49.20;39.22;;;;;;;;;;5081369;28;20770;-63
2020/12/16 02:11:05;;;;;;;48.70;40.80;;;;;;;;;;5076100;28;20409;-63
2020/12/16 02:13:31;;;;;;;49.47;41.00;;;;;;;;;;5082369;28;20023;-62
2020/12/16 02:15:57;;;;;;;51.22;41.40;;;;;;;;;;5076216;28;20060;-62
2020/12/16 02:18:23;;;;;;;53.00;40.65;;;;;;;;;;5084515;28;20024;-63
2020/12/16 02:20:49;;;;;;;52.83;40.95;;;;;;;;;;5080408;28;20097;-63
2020/12/16 02:23:18;;;;;;;51.80;41.53;;;;;;;;;;5081784;28;20450;-63
2020/12/16 02:25:44;;;;;;;54.08;41.78;;;;;;;;;;5084187;28;20541;-62
2020/12/16 02:28:10;;;;;;;46.47;38.72;;;;;;;;;;5084682;28;20044;-63
2020/12/16 02:30:36;;;;;;;51.47;40.42;;;;;;;;;;5079761;28;20052;-63
2020/12/16 02:33:03;;;;;;;49.42;40.92;;;;;;;;;;5089015;28;20444;-63
2020/12/16 02:35:28;;;;;;;45.95;37.60;;;;;;;;;;5079425;28;20036;-63
2020/12/16 02:37:54;;;;;;;53.50;41.20;;;;;;;;;;5086008;28;20436;-63
2020/12/16 02:40:20;;;;;;;47.13;40.80;;;;;;;;;;5078921;28;20032;-63
2020/12/16 02:42:46;;;;;;;50.08;39.70;;;;;;;;;;5081031;28;20024;-63
2020/12/16 02:45:12;;;;;;;48.13;38.85;;;;;;;;;;5083422;28;20107;-63
2020/12/16 02:47:38;;;;;;;51.30;40.75;;;;;;;;;;5083844;28;20032;-63
2020/12/16 02:50:05;;;;;;;51.03;40.38;;;;;;;;;;5084815;28;20032;-63
2020/12/16 02:52:31;;;;;;;50.25;41.97;;;;;;;;;;5083280;28;20077;-63
2020/12/16 02:54:57;;;;;;;53.58;40.92;;;;;;;;;;5088150;28;20077;-63
2020/12/16 02:57:23;;;;;;;50.60;40.90;;;;;;;;;;5080686;28;20127;-63
2020/12/16 02:59:59;;;;;;;48.47;39.88;;;;;;;;;;5080076;28;20482;-63
2020/12/16 03:02:25;;;;;;;51.08;42.15;;;;;;;;;;5075514;28;20570;-63
2020/12/16 03:04:51;;;;;;;51.72;41.78;;;;;;;;;;5079167;28;20123;-63
2020/12/16 03:07:17;;;;;;;51.53;42.28;;;;;;;;;;5080803;28;20025;-63
2020/12/16 03:09:43;;;;;;;56.42;43.53;;;;;;;;;;5083486;28;20169;-62
2020/12/16 03:12:09;;;;;;;54.28;43.75;;;;;;;;;;5074336;28;20073;-62
2020/12/16 03:14:35;;;;;;;56.15;44.33;;;;;;;;;;5080588;28;20028;-62
2020/12/16 03:17:01;;;;;;;54.67;42.78;;;;;;;;;;5078202;28;20035;-61
2020/12/16 03:19:27;;;;;;;52.70;41.17;;;;;;;;;;5081346;28;20029;-62
2020/12/16 03:21:53;;;;;;;49.00;41.92;;;;;;;;;;5087711;28;20039;-62
2020/12/16 03:24:20;;;;;;;54.55;43.38;;;;;;;;;;5074590;28;20043;-62
2020/12/16 03:26:46;;;;;;;55.55;44.83;;;;;;;;;;5083337;28;20024;-62
2020/12/16 03:29:12;;;;;;;56.05;44.80;;;;;;;;;;5078160;28;20032;-62
2020/12/16 03:31:38;;;;;;;54.95;44.83;;;;;;;;;;5080725;28;20037;-62
2020/12/16 03:34:05;;;;;;;58.92;44.47;;;;;;;;;;5082906;28;20100;-62
2020/12/16 03:36:31;;;;;;;56.97;45.40;;;;;;;;;;5078880;28;20048;-62
2020/12/16 03:38:57;;;;;;;59.17;45.57;;;;;;;;;;5078440;28;20028;-62
2020/12/16 03:41:23;;;;;;;58.25;45.40;;;;;;;;;;5084356;28;20020;-62
2020/12/16 03:43:49;;;;;;;58.15;44.65;;;;;;;;;;5078130;28;20155;-62
2020/12/16 03:46:16;;;;;;;55.57;44.23;;;;;;;;;;5085355;28;20032;-62
2020/12/16 03:48:42;;;;;;;59.73;45.07;;;;;;;;;;5078280;28;20013;-62
2020/12/16 03:51:10;;;;;;;56.47;45.03;;;;;;;;;;5084811;28;20614;-62
2020/12/16 03:53:36;;;;;;;63.77;48.20;;;;;;;;;;5073675;28;20024;-62
2020/12/16 03:56:09;;;;;;;62.97;48.45;;;;;;;;;;5083539;28;20034;-63
2020/12/16 03:58:36;;;;;;;62.08;49.05;;;;;;;;;;5079811;28;20028;-62
2020/12/16 04:01:06;;;;;;;62.37;50.33;;;;;;;;;;5079794;28;20057;-62
2020/12/16 04:03:32;;;;;;;65.68;51.92;;;;;;;;;;5080318;28;20048;-62
2020/12/16 04:05:58;;;;;;;65.18;50.75;;;;;;;;;;5074503;28;20113;-62
2020/12/16 04:08:25;;;;;;;71.07;53.22;;;;;;;;;;5081578;28;20052;-62
2020/12/16 04:10:51;;;;;;;67.80;52.80;;;;;;;;;;5077936;28;20047;-63
2020/12/16 04:13:18;;;;;;;65.63;52.03;;;;;;;;;;5080147;28;20032;-63
2020/12/16 04:15:44;;;;;;;60.17;47.37;;;;;;;;;;5082997;28;20105;-63
2020/12/16 04:18:10;;;;;;;67.73;51.53;;;;;;;;;;5083257;28;20028;-63
2020/12/16 04:20:37;;;;;;;61.03;48.20;;;;;;;;;;5080803;28;20030;-63
2020/12/16 04:23:04;;;;;;;63.42;49.70;;;;;;;;;;5084776;28;20456;-62
2020/12/16 04:25:30;;;;;;;62.15;47.80;;;;;;;;;;5080452;28;20437;-62
2020/12/16 04:27:56;;;;;;;53.23;44.00;;;;;;;;;;5080087;28;20043;-62
2020/12/16 04:30:22;;;;;;;62.13;48.83;;;;;;;;;;5077646;28;20024;-62
2020/12/16 04:32:56;;;;;;;52.40;43.57;;;;;;;;;;5082984;28;20034;-63
2020/12/16 04:35:23;;;;;;;57.37;46.17;;;;;;;;;;5080743;28;20020;-62
2020/12/16 04:37:49;;;;;;;60.10;46.67;;;;;;;;;;5080963;28;20032;-62
2020/12/16 04:40:15;;;;;;;57.20;46.92;;;;;;;;;;5075125;28;20492;-63
2020/12/16 04:42:42;;;;;;;54.67;45.10;;;;;;;;;;5083459;28;20086;-63
2020/12/16 04:45:09;;;;;;;60.90;47.10;;;;;;;;;;5076086;28;20066;-62
2020/12/16 04:47:35;;;;;;;51.92;42.47;;;;;;;;;;5076757;28;20451;-62
2020/12/16 04:50:05;;;;;;;57.90;46.30;;;;;;;;;;5082002;28;20055;-62
2020/12/16 04:52:31;;;;;;;53.83;43.33;;;;;;;;;;5077440;28;20020;-62
2020/12/16 04:54:57;;;;;;;63.60;46.65;;;;;;;;;;5080938;28;20481;-62
2020/12/16 04:57:23;;;;;;;58.40;45.08;;;;;;;;;;5082348;28;20025;-63
2020/12/16 04:59:54;;;;;;;58.97;45.40;;;;;;;;;;5085157;28;20020;-62
2020/12/16 05:09:01;;;;;;;52.57;40.40;;;;;;;;;;5056276;28;20098;-62
2020/12/16 05:11:33;;;;;;;52.10;41.90;;;;;;;;;;5078036;28;20033;-62
2020/12/16 05:14:09;;;;;;;50.13;41.03;;;;;;;;;;5099296;28;20111;-63
2020/12/16 05:16:54;;;;;;;51.37;40.13;;;;;;;;;;5077884;28;20386;-62
2020/12/16 05:19:30;;;;;;;54.38;44.28;;;;;;;;;;5079557;28;20032;-62
2020/12/16 05:22:15;;;;;;;53.67;41.97;;;;;;;;;;5079442;28;20370;-62
2020/12/16 05:24:41;;;;;;;50.58;40.53;;;;;;;;;;5081872;28;20064;-63
2020/12/16 05:27:08;;;;;;;47.70;40.10;;;;;;;;;;5080182;28;20024;-62
2020/12/16 05:29:34;;;;;;;50.88;40.05;;;;;;;;;;5086137;28;20024;-62
2020/12/16 05:32:21;;;;;;;53.30;41.00;;;;;;;;;;5078304;28;20039;-63
2020/12/16 05:35:08;;;;;;;48.53;39.10;;;;;;;;;;5085699;28;20481;-63
2020/12/16 05:37:36;;;;;;;47.53;38.23;;;;;;;;;;5080769;28;20028;-62
2020/12/16 05:40:08;;;;;;;48.73;38.70;;;;;;;;;;5086109;28;20028;-63
2020/12/16 05:42:34;;;;;;;50.55;35.83;;;;;;;;;;5078535;28;20535;-62
2020/12/16 05:45:07;;;;;;;49.63;38.67;;;;;;;;;;5085468;28;20119;-62
2020/12/16 05:47:39;;;;;;;43.77;35.80;;;;;;;;;;5081897;28;20470;-62
2020/12/16 05:50:11;;;;;;;48.20;36.03;;;;;;;;;;5074752;28;20036;-62
2020/12/16 05:52:37;;;;;;;41.37;34.87;;;;;;;;;;5087891;28;20029;-63
2020/12/16 05:55:03;;;;;;;45.13;37.23;;;;;;;;;;5083125;28;20035;-62
2020/12/16 05:57:30;;;;;;;44.72;36.47;;;;;;;;;;5086879;28;20020;-62
2020/12/16 06:00:12;;;;;;;44.53;35.60;;;;;;;;;;5082483;28;20024;-62
2020/12/16 06:02:39;;;;;;;46.33;35.57;;;;;;;;;;5085425;28;20115;-62
2020/12/16 06:05:06;;;;;;;47.70;35.53;;;;;;;;;;5082990;28;20500;-62
2020/12/16 06:07:33;;;;;;;45.03;35.45;;;;;;;;;;5088504;28;20032;-63
2020/12/16 06:09:59;;;;;;;46.37;37.33;;;;;;;;;;5084585;28;20097;-63
2020/12/16 06:12:27;;;;;;;40.03;32.30;;;;;;;;;;5075469;28;20110;-62
2020/12/16 06:15:02;;;;;;;39.72;32.97;;;;;;;;;;5080423;28;20032;-62
2020/12/16 06:17:30;;;;;;;41.00;30.73;;;;;;;;;;5086424;28;20060;-62
2020/12/16 06:20:00;;;;;;;42.60;33.70;;;;;;;;;;5083887;28;20035;-62
2020/12/16 06:22:32;;;;;;;42.93;33.93;;;;;;;;;;5083879;28;20056;-62
2020/12/16 06:24:58;;;;;;;43.30;35.63;;;;;;;;;;5084068;28;20125;-62
2020/12/16 06:27:28;;;;;;;48.90;36.58;;;;;;;;;;5082076;28;20120;-62
2020/12/16 06:33:11;;;;;;;53.17;38.47;;;;;;;;;;5084918;28;20031;-62
2020/12/16 06:35:39;;;;;;;48.22;40.38;;;;;;;;;;5084191;28;20485;-63
2020/12/16 06:38:19;;;;;;;49.93;40.33;;;;;;;;;;5079423;28;20047;-62
2020/12/16 06:40:56;;;;;;;53.07;41.70;;;;;;;;;;5085814;28;20023;-62
2020/12/16 06:43:31;;;;;;;50.17;39.07;;;;;;;;;;5084186;28;20051;-62
2020/12/16 06:45:57;;;;;;;52.27;42.30;;;;;;;;;;5073911;28;20055;-62
2020/12/16 06:48:36;;;;;;;54.00;44.03;;;;;;;;;;5078493;28;20029;-62
2020/12/16 06:51:36;;;;;;;50.60;41.70;;;;;;;;;;5077636;28;20039;-62
2020/12/16 06:54:06;;;;;;;49.23;40.63;;;;;;;;;;5071064;28;20621;-62
2020/12/16 06:56:32;;;;;;;52.87;42.20;;;;;;;;;;5079564;28;20028;-62
2020/12/16 06:58:58;;;;;;;53.90;43.40;;;;;;;;;;5088547;28;20025;-62
2020/12/16 07:01:24;;;;;;;52.20;42.25;;;;;;;;;;5077413;28;20054;-62
2020/12/16 07:03:51;;;;;;;53.75;44.42;;;;;;;;;;5084128;28;20077;-62
2020/12/16 07:06:29;;;;;;;50.80;43.42;;;;;;;;;;5078537;28;20600;-62
2020/12/16 07:09:13;;;;;;;53.70;42.57;;;;;;;;;;5081496;28;20108;-63
2020/12/16 07:11:40;;;;;;;52.00;41.72;;;;;;;;;;5080926;28;20036;-62
2020/12/16 07:14:16;;;;;;;53.03;42.60;;;;;;;;;;5085761;28;20050;-63
2020/12/16 07:16:43;;;;;;;52.03;41.73;;;;;;;;;;5074158;28;20113;-63
2020/12/16 07:19:09;;;;;;;48.87;41.63;;;;;;;;;;5084104;28;20039;-62
2020/12/16 07:21:36;;;;;;;52.87;41.67;;;;;;;;;;5074618;28;20020;-62
2020/12/16 07:24:06;;;;;;;48.53;39.10;;;;;;;;;;5083619;28;20029;-62
2020/12/16 07:26:43;;;;;;;51.43;41.53;;;;;;;;;;5080108;28;20062;-62
2020/12/16 07:29:19;;;;;;;55.88;42.20;;;;;;;;;;5078702;28;20086;-62
2020/12/16 07:32:01;;;;;;;56.07;42.73;;;;;;;;;;5077733;28;20035;-62
2020/12/16 07:34:28;;;;;;;54.70;42.07;;;;;;;;;;5081108;28;20025;-62
2020/12/16 07:37:01;;;;;;;51.73;41.10;;;;;;;;;;5082494;28;20487;-62
2020/12/16 07:39:28;;;;;;;51.20;41.10;;;;;;;;;;5075622;28;20036;-62
2020/12/16 07:41:57;;;;;;;50.45;40.72;;;;;;;;;;5080094;28;20124;-62
2020/12/16 07:44:23;;;;;;;51.88;42.40;;;;;;;;;;5076168;28;20024;-63
2020/12/16 07:46:50;;;;;;;51.50;41.43;;;;;;;;;;5075267;28;20048;-63
2020/12/16 07:49:17;;;;;;;47.87;40.23;;;;;;;;;;5077794;28;20099;-62
2020/12/16 07:51:43;;;;;;;53.57;41.93;;;;;;;;;;5080021;28;20051;-63
2020/12/16 07:54:10;;;;;;;53.57;40.33;;;;;;;;;;5077570;28;20028;-62
2020/12/16 07:56:36;;;;;;;52.60;40.40;;;;;;;;;;5085562;28;20024;-62
2020/12/16 07:59:15;;;;;;;49.58;39.20;;;;;;;;;;5078717;28;20158;-63
2020/12/16 08:01:41;;;;;;;49.07;40.33;;;;;;;;;;5080605;28;20763;-62
2020/12/16 08:04:07;;;;;;;51.57;40.03;;;;;;;;;;5072628;28;20108;-62
2020/12/16 08:06:33;;;;;;;56.70;42.80;;;;;;;;;;5080067;28;20131;-62
2020/12/16 08:09:00;;;;;;;47.57;39.07;;;;;;;;;;5079101;28;20021;-63
2020/12/16 08:11:27;;;;;;;58.17;43.03;;;;;;;;;;5086646;28;20032;-62
2020/12/16 08:14:02;;;;;;;46.87;39.30;;;;;;;;;;5080051;28;20031;-62
2020/12/16 08:16:28;;;;;;;58.30;43.83;;;;;;;;;;5079494;28;20024;-63
2020/12/16 08:18:54;;;;;;;60.07;42.90;;;;;;;;;;5080857;28;20024;-62
2020/12/16 08:21:21;;;;;;;59.72;44.22;;;;;;;;;;5082611;28;20028;-62
2020/12/16 08:23:47;;;;;;;59.05;42.83;;;;;;;;;;5081707;28;20927;-62
2020/12/16 08:26:14;;;;;;;57.80;41.93;;;;;;;;;;5078513;28;20036;-62
2020/12/16 08:28:40;;;;;;;56.27;43.03;;;;;;;;;;5084535;28;20048;-62
2020/12/16 08:31:06;;;;;;;53.38;41.13;;;;;;;;;;5078431;28;20478;-62
2020/12/16 08:33:32;;;;;;;64.55;46.00;;;;;;;;;;5080629;28;20107;-62
2020/12/16 08:36:04;;;;;;;64.50;47.17;;;;;;;;;;5077901;28;20028;-62
2020/12/16 08:38:38;;;;;;;66.40;47.28;;;;;;;;;;5087061;28;20077;-62
2020/12/16 08:41:06;;;;;;;54.83;43.10;;;;;;;;;;5074354;28;20028;-62
2020/12/16 08:43:35;;;;;;;49.22;39.88;;;;;;;;;;5073740;28;20218;-62
2020/12/16 08:46:01;;;;;;;55.78;43.30;;;;;;;;;;5071891;28;20040;-62
2020/12/16 08:48:27;;;;;;;56.63;43.70;;;;;;;;;;5076312;28;20028;-62
2020/12/16 08:51:03;;;;;;;53.05;41.45;;;;;;;;;;5072370;28;20130;-62
2020/12/16 08:53:29;;;;;;;56.03;43.13;;;;;;;;;;5075609;28;20032;-62
2020/12/16 08:55:55;;;;;;;55.60;43.28;;;;;;;;;;5070415;28;20038;-62
2020/12/16 08:58:21;;;;;;;58.55;45.92;;;;;;;;;;5075348;28;20024;-62
2020/12/16 09:00:47;;;;;;;67.93;51.63;;;;;;;;;;5073231;28;20085;-61
2020/12/16 09:03:14;;;;;;;66.13;50.13;;;;;;;;;;5075606;28;20028;-62
2020/12/16 09:05:41;;;;;;;62.57;49.57;;;;;;;;;;5074119;28;20043;-62
2020/12/16 09:08:09;;;;;;;66.53;52.57;;;;;;;;;;5080269;28;20025;-62
2020/12/16 09:10:57;;;;;;;82.82;57.17;;;;;;;;;;5080243;28;20140;-62
2020/12/16 09:13:23;;;;;;;65.77;48.90;;;;;;;;;;5080241;28;20024;-62
2020/12/16 09:15:50;;;;;;;68.18;51.60;;;;;;;;;;5082652;28;20101;-61
2020/12/16 09:18:17;;;;;;;79.40;56.40;;;;;;;;;;5078632;28;20024;-62
2020/12/16 09:20:47;;;;;;;57.65;45.92;;;;;;;;;;5089310;28;20032;-62
2020/12/16 09:23:13;;;;;;;57.58;45.63;;;;;;;;;;5075796;28;20050;-61
2020/12/16 09:25:47;;;;;;;52.13;42.83;;;;;;;;;;5079622;28;20040;-61
2020/12/16 09:28:13;;;;;;;49.60;40.90;;;;;;;;;;5080680;28;20063;-62
2020/12/16 09:30:39;;;;;;;60.25;46.00;;;;;;;;;;5085804;28;20040;-62
2020/12/16 09:33:12;;;;;;;53.00;42.88;;;;;;;;;;5083074;28;20051;-62
2020/12/16 09:35:38;;;;;;;51.15;38.97;;;;;;;;;;5080700;28;20043;-62
2020/12/16 09:38:14;;;;;;;68.25;47.78;;;;;;;;;;5084253;28;20024;-61
2020/12/16 09:40:41;;;;;;;54.10;42.03;;;;;;;;;;5088733;28;20016;-61
2020/12/16 09:43:10;;;;;;;53.42;43.22;;;;;;;;;;5080151;28;20493;-61
2020/12/16 09:45:36;;;;;;;60.90;46.40;;;;;;;;;;5081879;28;20413;-62
2020/12/16 09:48:02;;;;;;;57.45;42.50;;;;;;;;;;5085042;28;20546;-62
2020/12/16 09:50:30;;;;;;;44.25;36.63;;;;;;;;;;5083235;28;20097;-62
2020/12/16 09:53:11;;;;;;;51.40;39.95;;;;;;;;;;5081728;28;20055;-62
2020/12/16 09:55:37;;;;;;;58.20;43.92;;;;;;;;;;5079105;28;20389;-62
2020/12/16 09:58:05;;;;;;;52.08;41.05;;;;;;;;;;5081542;28;20032;-62
2020/12/16 10:00:32;;;;;;;52.75;40.92;;;;;;;;;;5078132;28;20498;-61
2020/12/16 10:02:58;;;;;;;51.95;40.05;;;;;;;;;;5079300;28;20028;-62
2020/12/16 10:05:24;;;;;;;53.17;41.90;;;;;;;;;;5076146;28;20489;-62
2020/12/16 10:07:50;;;;;;;54.17;42.90;;;;;;;;;;5079183;28;20052;-62
2020/12/16 10:10:16;;;;;;;46.22;40.22;;;;;;;;;;5072689;28;20048;-62
2020/12/16 10:12:42;;;;;;;47.80;38.72;;;;;;;;;;5075347;28;20068;-62
2020/12/16 10:15:08;;;;;;;47.17;38.60;;;;;;;;;;5070945;28;20066;-62
2020/12/16 10:17:34;;;;;;;48.58;40.08;;;;;;;;;;5077069;28;20090;-62
2020/12/16 10:20:02;;;;;;;46.58;35.67;;;;;;;;;;5071594;28;20513;-62
2020/12/16 10:22:28;;;;;;;43.85;35.67;;;;;;;;;;5079710;28;20023;-61
2020/12/16 10:24:54;;;;;;;44.13;34.45;;;;;;;;;;5083763;28;20434;-61
2020/12/16 10:27:21;;;;;;;40.67;34.75;;;;;;;;;;5083110;28;20463;-62
2020/12/16 10:29:47;;;;;;;44.60;34.72;;;;;;;;;;5086368;28;20028;-62
2020/12/16 10:32:13;;;;;;;46.95;36.75;;;;;;;;;;5076670;28;20090;-62
2020/12/16 10:34:39;;;;;;;42.67;34.58;;;;;;;;;;5081258;28;20028;-61
2020/12/16 10:37:05;;;;;;;45.28;35.75;;;;;;;;;;5084398;28;20112;-61
2020/12/16 10:39:31;;;;;;;44.72;36.10;;;;;;;;;;5079879;28;20032;-62
2020/12/16 10:41:58;;;;;;;41.22;33.38;;;;;;;;;;5082134;28;20036;-62
2020/12/16 10:44:24;;;;;;;39.17;32.25;;;;;;;;;;5073596;28;20024;-61
2020/12/16 10:46:54;;;;;;;43.47;35.50;;;;;;;;;;5076507;28;20044;-62
2020/12/16 10:49:21;;;;;;;47.00;36.08;;;;;;;;;;5073474;28;20039;-61
2020/12/16 10:51:47;;;;;;;44.75;36.25;;;;;;;;;;5076987;28;20032;-61
2020/12/16 10:54:13;;;;;;;42.72;34.95;;;;;;;;;;5078981;28;20024;-62
2020/12/16 10:56:39;;;;;;;44.72;37.13;;;;;;;;;;5072389;28;20052;-62
2020/12/16 10:59:05;;;;;;;43.67;36.30;;;;;;;;;;5075632;28;20100;-62
2020/12/16 11:01:38;;;;;;;40.50;35.17;;;;;;;;;;5072364;28;20028;-62
2020/12/16 11:04:07;;;;;;;41.55;33.05;;;;;;;;;;5077135;28;20033;-62
2020/12/16 11:06:33;;;;;;;39.17;34.45;;;;;;;;;;5075464;28;20040;-62
2020/12/16 11:08:59;;;;;;;41.33;33.28;;;;;;;;;;5074855;28;20039;-62
2020/12/16 11:11:26;;;;;;;41.63;36.17;;;;;;;;;;5070552;28;20099;-61
2020/12/16 11:13:52;;;;;;;43.25;36.22;;;;;;;;;;5078074;28;20666;-58
2020/12/16 11:16:19;;;;;;;43.70;37.80;;;;;;;;;;5073719;28;20094;-57
2020/12/16 11:18:47;;;;;;;45.28;35.45;;;;;;;;;;5081532;28;20035;-58
2020/12/16 11:21:13;;;;;;;40.67;32.80;;;;;;;;;;5077436;28;20036;-58
2020/12/16 11:23:40;;;;;;;43.25;35.15;;;;;;;;;;5080760;28;20051;-59
2020/12/16 11:26:06;;;;;;;41.60;34.28;;;;;;;;;;5081290;28;20113;-62
2020/12/16 11:28:32;;;;;;;41.13;34.97;;;;;;;;;;5080755;28;20028;-62
2020/12/16 11:31:01;;;;;;;40.13;33.20;;;;;;;;;;5084277;28;20024;-62
2020/12/16 11:33:27;;;;;;;42.90;34.30;;;;;;;;;;5077007;28;20028;-62
2020/12/16 11:35:53;;;;;;;36.22;31.73;;;;;;;;;;5081106;28;20040;-62
2020/12/16 11:38:19;;;;;;;40.33;33.90;;;;;;;;;;5075092;28;20343;-61
2020/12/16 11:40:45;;;;;;;40.20;33.88;;;;;;;;;;5086529;28;20385;-62
2020/12/16 11:43:11;;;;;;;39.53;32.83;;;;;;;;;;5082053;28;20035;-61
2020/12/16 11:45:37;;;;;;;40.20;34.78;;;;;;;;;;5081599;28;20032;-62
2020/12/16 11:48:07;;;;;;;38.85;33.50;;;;;;;;;;5080465;28;20020;-62
2020/12/16 11:50:33;;;;;;;39.72;32.70;;;;;;;;;;5085475;28;20051;-62
2020/12/16 11:56:02;;;;;;;37.42;31.75;;;;;;;;;;5087324;28;20042;-62
2020/12/16 11:58:29;;;;;;;38.17;32.90;;;;;;;;;;5077397;28;20016;-62
2020/12/16 12:00:55;;;;;;;41.42;33.53;;;;;;;;;;5079983;28;20024;-62
2020/12/16 12:03:21;;;;;;;40.72;35.08;;;;;;;;;;5080614;28;20489;-62
2020/12/16 12:05:50;;;;;;;46.72;35.88;;;;;;;;;;5080375;28;20062;-62
2020/12/16 12:08:16;;;;;;;44.55;35.35;;;;;;;;;;5078657;28;20029;-62
2020/12/16 12:10:43;;;;;;;43.30;35.00;;;;;;;;;;5078105;28;20144;-61
2020/12/16 12:13:09;;;;;;;43.30;36.42;;;;;;;;;;5080288;28;20024;-57
2020/12/16 12:15:35;;;;;;;50.08;39.67;;;;;;;;;;5084890;28;20107;-51
2020/12/16 12:18:01;;;;;;;45.83;39.00;;;;;;;;;;5075064;28;20482;-55
2020/12/16 12:20:27;;;;;;;47.47;38.08;;;;;;;;;;5083005;28;20045;-55
2020/12/16 12:22:53;;;;;;;41.30;36.10;;;;;;;;;;5085822;28;20102;-58
2020/12/16 12:25:19;;;;;;;45.55;36.78;;;;;;;;;;5078038;28;20033;-56
2020/12/16 12:27:45;;;;;;;45.97;36.65;;;;;;;;;;5082044;28;20032;-57
2020/12/16 12:30:12;;;;;;;47.05;37.78;;;;;;;;;;5079713;28;20369;-56
2020/12/16 12:32:38;;;;;;;45.10;35.60;;;;;;;;;;5079665;28;20077;-55
2020/12/16 12:35:04;;;;;;;43.13;35.20;;;;;;;;;;5083857;28;20024;-58
2020/12/16 12:37:30;;;;;;;39.35;33.97;;;;;;;;;;5081718;28;20062;-57
2020/12/16 12:39:56;;;;;;;38.13;32.72;;;;;;;;;;5080019;28;20017;-56
2020/12/16 12:42:22;;;;;;;38.53;31.73;;;;;;;;;;5082664;28;20106;-49
2020/12/16 12:44:48;;;;;;;39.58;30.35;;;;;;;;;;5078260;28;20085;-58
2020/12/16 12:47:14;;;;;;;37.20;29.08;;;;;;;;;;5084602;28;20077;-56
2020/12/16 12:49:40;;;;;;;43.58;34.40;;;;;;;;;;5077727;28;20416;-57
2020/12/16 12:52:06;;;;;;;42.05;34.17;;;;;;;;;;5082497;28;20032;-59
2020/12/16 12:54:32;;;;;;;44.08;34.60;;;;;;;;;;5073211;28;20024;-58
2020/12/16 12:56:58;;;;;;;37.20;31.92;;;;;;;;;;5076439;28;20024;-59
2020/12/16 12:59:24;;;;;;;36.28;30.85;;;;;;;;;;5086171;28;20027;-59
2020/12/16 13:01:51;;;;;;;38.80;32.25;;;;;;;;;;5076987;28;20459;-59
2020/12/16 13:04:17;;;;;;;43.35;34.75;;;;;;;;;;5092749;28;20058;-58
2020/12/16 13:07:20;;;;;;;42.53;33.92;;;;;;;;;;5083936;28;20084;-58
2020/12/16 13:09:46;;;;;;;37.38;31.95;;;;;;;;;;5083625;28;20048;-59
2020/12/16 13:12:12;;;;;;;44.38;35.45;;;;;;;;;;5083206;28;20032;-59
2020/12/16 13:14:41;;;;;;;41.83;35.83;;;;;;;;;;5083147;28;20386;-59
2020/12/16 13:17:07;;;;;;;46.72;36.95;;;;;;;;;;5083575;28;20028;-59
2020/12/16 13:19:33;;;;;;;43.92;38.58;;;;;;;;;;5089448;28;20032;-58
2020/12/16 13:21:59;;;;;;;45.47;37.95;;;;;;;;;;5085076;28;20035;-58
2020/12/16 13:24:26;;;;;;;51.40;42.53;;;;;;;;;;5085587;28;20026;-58
2020/12/16 13:26:52;;;;;;;89.07;75.43;;;;;;;;;;5087794;28;20036;-57
2020/12/16 13:29:19;;;;;;;64.15;48.90;;;;;;;;;;5086072;28;20410;-58
2020/12/16 13:31:51;;;;;;;49.40;38.33;;;;;;;;;;5085057;28;20111;-57
2020/12/16 13:34:18;;;;;;;47.55;38.08;;;;;;;;;;5083676;28;20077;-59
2020/12/16 13:36:45;;;;;;;49.22;38.10;;;;;;;;;;5085573;28;20032;-58
2020/12/16 13:39:11;;;;;;;47.95;40.55;;;;;;;;;;5089755;28;20024;-59
2020/12/16 13:41:37;;;;;;;45.25;38.17;;;;;;;;;;5084398;28;20027;-58
2020/12/16 13:44:03;;;;;;;51.88;42.30;;;;;;;;;;5085137;28;20737;-58
2020/12/16 13:46:29;;;;;;;51.42;43.67;;;;;;;;;;5076818;28;20040;-58
2020/12/16 13:48:55;;;;;;;46.90;38.75;;;;;;;;;;5081813;28;20085;-59
2020/12/16 13:51:22;;;;;;;49.65;41.08;;;;;;;;;;5087871;28;20028;-58
2020/12/16 13:53:49;;;;;;;46.83;40.53;;;;;;;;;;5076163;28;20039;-58
2020/12/16 13:56:15;;;;;;;47.33;39.15;;;;;;;;;;5081631;28;20024;-58
2020/12/16 13:58:41;;;;;;;63.42;46.08;;;;;;;;;;5076824;28;20533;-57
2020/12/16 14:01:07;;;;;;;54.60;42.03;;;;;;;;;;5081798;28;20482;-58
2020/12/16 14:03:33;;;;;;;50.55;41.58;;;;;;;;;;5077335;28;20031;-58
2020/12/16 14:05:59;;;;;;;48.08;40.53;;;;;;;;;;5086349;28;20375;-57
2020/12/16 14:08:25;;;;;;;56.92;42.75;;;;;;;;;;5079014;28;20028;-58
2020/12/16 14:10:51;;;;;;;56.08;44.58;;;;;;;;;;5080320;28;20135;-57
2020/12/16 14:13:18;;;;;;;59.67;43.67;;;;;;;;;;5086523;28;20051;-59
2020/12/16 14:15:45;;;;;;;52.03;42.53;;;;;;;;;;5088635;28;20471;-58
2020/12/16 14:18:12;;;;;;;53.03;42.17;;;;;;;;;;5084503;28;20051;-58
2020/12/16 14:20:38;;;;;;;51.72;42.05;;;;;;;;;;5088880;28;20085;-58
2020/12/16 14:23:04;;;;;;;58.65;44.92;;;;;;;;;;5084847;28;22105;-58
2020/12/16 14:25:30;;;;;;;51.60;43.25;;;;;;;;;;5086616;28;20067;-58
2020/12/16 14:27:56;;;;;;;53.53;41.10;;;;;;;;;;5084069;28;20509;-59
2020/12/16 14:30:22;;;;;;;54.17;41.50;;;;;;;;;;5085774;28;20515;-58
2020/12/16 14:32:48;;;;;;;52.00;41.95;;;;;;;;;;5088628;28;20044;-57
2020/12/16 14:35:15;;;;;;;54.40;41.20;;;;;;;;;;5084340;28;20024;-58
2020/12/16 14:37:45;;;;;;;48.83;39.10;;;;;;;;;;5085386;28;20051;-57
2020/12/16 14:40:11;;;;;;;52.05;41.05;;;;;;;;;;5082862;28;20024;-58
2020/12/16 14:42:37;;;;;;;47.80;38.10;;;;;;;;;;5080895;28;20153;-57